sensor_id;sensor_type;location;lat;lon;timestamp;P1;durP1;ratioP1;P2;durP2;ratioP2
38318;SDS011;24121;53.536;10.224;2023-04-24T00:00:15;7.88;;;6.63;;
38318;SDS011;24121;53.536;10.224;2023-04-24T00:02:44;13.00;;;8.95;;
38318;SDS011;24121;53.536;10.224;2023-04-24T00:05:11;10.40;;;9.35;;
38318;SDS011;24121;53.536;10.224;2023-04-24T00:07:37;9.02;;;8.00;;
38318;SDS011;24121;53.536;10.224;2023-04-24T00:10:02;8.30;;;7.03;;
38318;SDS011;24121;53.536;10.224;2023-04-24T00:12:28;9.23;;;8.20;;
38318;SDS011;24121;53.536;10.224;2023-04-24T00:14:53;8.85;;;7.95;;
38318;SDS011;24121;53.536;10.224;2023-04-24T00:17:18;9.75;;;8.73;;
38318;SDS011;24121;53.536;10.224;2023-04-24T00:19:47;9.60;;;8.70;;
38318;SDS011;24121;53.536;10.224;2023-04-24T00:22:13;11.30;;;8.90;;
38318;SDS011;24121;53.536;10.224;2023-04-24T00:24:39;9.15;;;8.27;;
38318;SDS011;24121;53.536;10.224;2023-04-24T00:27:04;7.60;;;6.85;;
38318;SDS011;24121;53.536;10.224;2023-04-24T00:29:30;9.15;;;8.27;;
38318;SDS011;24121;53.536;10.224;2023-04-24T00:31:55;10.10;;;8.77;;
38318;SDS011;24121;53.536;10.224;2023-04-24T00:34:20;9.38;;;8.23;;
38318;SDS011;24121;53.536;10.224;2023-04-24T00:36:46;9.02;;;8.13;;
38318;SDS011;24121;53.536;10.224;2023-04-24T00:39:11;10.75;;;9.52;;
38318;SDS011;24121;53.536;10.224;2023-04-24T00:41:36;8.77;;;7.75;;
38318;SDS011;24121;53.536;10.224;2023-04-24T00:44:02;10.25;;;9.23;;
38318;SDS011;24121;53.536;10.224;2023-04-24T00:46:27;9.77;;;8.60;;
38318;SDS011;24121;53.536;10.224;2023-04-24T00:48:53;9.75;;;8.75;;
38318;SDS011;24121;53.536;10.224;2023-04-24T00:51:18;11.07;;;9.63;;
38318;SDS011;24121;53.536;10.224;2023-04-24T00:53:44;12.32;;;11.02;;
38318;SDS011;24121;53.536;10.224;2023-04-24T00:56:10;9.15;;;8.25;;
38318;SDS011;24121;53.536;10.224;2023-04-24T00:58:35;10.10;;;8.38;;
38318;SDS011;24121;53.536;10.224;2023-04-24T01:01:01;13.20;;;10.65;;
38318;SDS011;24121;53.536;10.224;2023-04-24T01:03:28;9.48;;;8.50;;
38318;SDS011;24121;53.536;10.224;2023-04-24T01:05:55;10.23;;;9.13;;
38318;SDS011;24121;53.536;10.224;2023-04-24T01:08:20;11.32;;;8.70;;
38318;SDS011;24121;53.536;10.224;2023-04-24T01:10:48;9.55;;;8.65;;
38318;SDS011;24121;53.536;10.224;2023-04-24T01:13:15;10.07;;;9.07;;
38318;SDS011;24121;53.536;10.224;2023-04-24T01:15:41;8.95;;;7.80;;
38318;SDS011;24121;53.536;10.224;2023-04-24T01:18:06;11.55;;;9.30;;
38318;SDS011;24121;53.536;10.224;2023-04-24T01:20:31;12.20;;;9.13;;
38318;SDS011;24121;53.536;10.224;2023-04-24T01:22:58;9.27;;;8.32;;
38318;SDS011;24121;53.536;10.224;2023-04-24T01:25:24;10.13;;;8.02;;
38318;SDS011;24121;53.536;10.224;2023-04-24T01:27:49;9.50;;;8.05;;
38318;SDS011;24121;53.536;10.224;2023-04-24T01:30:15;8.45;;;6.90;;
38318;SDS011;24121;53.536;10.224;2023-04-24T01:32:40;8.45;;;7.57;;
38318;SDS011;24121;53.536;10.224;2023-04-24T01:35:09;6.93;;;6.22;;
38318;SDS011;24121;53.536;10.224;2023-04-24T01:37:35;7.50;;;6.70;;
38318;SDS011;24121;53.536;10.224;2023-04-24T01:40:02;7.95;;;5.95;;
38318;SDS011;24121;53.536;10.224;2023-04-24T01:42:28;7.50;;;6.15;;
38318;SDS011;24121;53.536;10.224;2023-04-24T01:44:54;6.38;;;5.78;;
38318;SDS011;24121;53.536;10.224;2023-04-24T01:47:19;6.68;;;5.72;;
38318;SDS011;24121;53.536;10.224;2023-04-24T01:49:45;5.35;;;4.85;;
38318;SDS011;24121;53.536;10.224;2023-04-24T01:52:10;5.88;;;5.30;;
38318;SDS011;24121;53.536;10.224;2023-04-24T01:54:36;6.20;;;4.93;;
38318;SDS011;24121;53.536;10.224;2023-04-24T01:57:01;5.85;;;5.25;;
38318;SDS011;24121;53.536;10.224;2023-04-24T01:59:27;5.43;;;4.93;;
38318;SDS011;24121;53.536;10.224;2023-04-24T02:01:53;6.82;;;5.32;;
38318;SDS011;24121;53.536;10.224;2023-04-24T02:04:18;6.75;;;4.68;;
38318;SDS011;24121;53.536;10.224;2023-04-24T02:06:43;5.72;;;5.10;;
38318;SDS011;24121;53.536;10.224;2023-04-24T02:09:09;6.32;;;5.72;;
38318;SDS011;24121;53.536;10.224;2023-04-24T02:11:35;5.60;;;5.10;;
38318;SDS011;24121;53.536;10.224;2023-04-24T02:14:01;6.55;;;5.95;;
38318;SDS011;24121;53.536;10.224;2023-04-24T02:16:27;5.95;;;5.35;;
38318;SDS011;24121;53.536;10.224;2023-04-24T02:18:55;6.13;;;5.53;;
38318;SDS011;24121;53.536;10.224;2023-04-24T02:21:20;4.90;;;4.30;;
38318;SDS011;24121;53.536;10.224;2023-04-24T02:23:45;6.13;;;4.75;;
38318;SDS011;24121;53.536;10.224;2023-04-24T02:26:11;5.43;;;4.93;;
38318;SDS011;24121;53.536;10.224;2023-04-24T02:28:36;5.43;;;4.90;;
38318;SDS011;24121;53.536;10.224;2023-04-24T02:31:01;5.18;;;4.30;;
38318;SDS011;24121;53.536;10.224;2023-04-24T02:33:27;7.57;;;4.47;;
38318;SDS011;24121;53.536;10.224;2023-04-24T02:35:52;6.43;;;4.13;;
38318;SDS011;24121;53.536;10.224;2023-04-24T02:38:17;5.22;;;4.53;;
38318;SDS011;24121;53.536;10.224;2023-04-24T02:40:43;4.53;;;4.13;;
38318;SDS011;24121;53.536;10.224;2023-04-24T02:43:08;5.63;;;3.80;;
38318;SDS011;24121;53.536;10.224;2023-04-24T02:45:34;4.25;;;3.65;;
38318;SDS011;24121;53.536;10.224;2023-04-24T02:47:59;4.63;;;3.97;;
38318;SDS011;24121;53.536;10.224;2023-04-24T02:50:25;3.85;;;3.55;;
38318;SDS011;24121;53.536;10.224;2023-04-24T02:52:50;3.97;;;3.45;;
38318;SDS011;24121;53.536;10.224;2023-04-24T02:55:15;4.60;;;3.50;;
38318;SDS011;24121;53.536;10.224;2023-04-24T02:57:41;2.55;;;2.35;;
38318;SDS011;24121;53.536;10.224;2023-04-24T03:00:06;2.72;;;2.50;;
38318;SDS011;24121;53.536;10.224;2023-04-24T03:02:32;2.88;;;2.45;;
38318;SDS011;24121;53.536;10.224;2023-04-24T03:04:57;3.40;;;2.00;;
38318;SDS011;24121;53.536;10.224;2023-04-24T03:07:23;2.45;;;2.25;;
38318;SDS011;24121;53.536;10.224;2023-04-24T03:09:49;2.47;;;2.20;;
38318;SDS011;24121;53.536;10.224;2023-04-24T03:12:14;3.35;;;2.25;;
38318;SDS011;24121;53.536;10.224;2023-04-24T03:14:41;4.95;;;2.17;;
38318;SDS011;24121;53.536;10.224;2023-04-24T03:17:07;2.20;;;1.88;;
38318;SDS011;24121;53.536;10.224;2023-04-24T03:19:32;3.22;;;2.30;;
38318;SDS011;24121;53.536;10.224;2023-04-24T03:21:57;2.42;;;1.90;;
38318;SDS011;24121;53.536;10.224;2023-04-24T03:24:23;2.20;;;2.00;;
38318;SDS011;24121;53.536;10.224;2023-04-24T03:26:48;2.25;;;2.00;;
38318;SDS011;24121;53.536;10.224;2023-04-24T03:29:13;3.05;;;1.77;;
38318;SDS011;24121;53.536;10.224;2023-04-24T03:31:39;1.80;;;1.70;;
38318;SDS011;24121;53.536;10.224;2023-04-24T03:34:04;1.98;;;1.80;;
38318;SDS011;24121;53.536;10.224;2023-04-24T03:36:29;4.18;;;1.80;;
38318;SDS011;24121;53.536;10.224;2023-04-24T03:38:56;1.80;;;1.55;;
38318;SDS011;24121;53.536;10.224;2023-04-24T03:41:21;1.90;;;1.65;;
38318;SDS011;24121;53.536;10.224;2023-04-24T03:43:47;4.40;;;1.70;;
38318;SDS011;24121;53.536;10.224;2023-04-24T03:46:12;2.15;;;1.80;;
38318;SDS011;24121;53.536;10.224;2023-04-24T03:48:38;2.20;;;2.00;;
38318;SDS011;24121;53.536;10.224;2023-04-24T03:51:03;3.22;;;1.75;;
38318;SDS011;24121;53.536;10.224;2023-04-24T03:53:29;3.92;;;2.20;;
38318;SDS011;24121;53.536;10.224;2023-04-24T03:55:54;3.45;;;1.73;;
38318;SDS011;24121;53.536;10.224;2023-04-24T03:58:20;1.80;;;1.70;;
38318;SDS011;24121;53.536;10.224;2023-04-24T04:00:45;1.63;;;1.52;;
38318;SDS011;24121;53.536;10.224;2023-04-24T04:03:12;2.60;;;1.80;;
38318;SDS011;24121;53.536;10.224;2023-04-24T04:05:39;1.98;;;1.85;;
38318;SDS011;24121;53.536;10.224;2023-04-24T04:08:04;1.88;;;1.77;;
38318;SDS011;24121;53.536;10.224;2023-04-24T04:10:30;2.75;;;1.50;;
38318;SDS011;24121;53.536;10.224;2023-04-24T04:12:56;2.40;;;1.50;;
38318;SDS011;24121;53.536;10.224;2023-04-24T04:15:21;2.72;;;1.75;;
38318;SDS011;24121;53.536;10.224;2023-04-24T04:17:46;1.75;;;1.50;;
38318;SDS011;24121;53.536;10.224;2023-04-24T04:20:12;1.50;;;1.40;;
38318;SDS011;24121;53.536;10.224;2023-04-24T04:22:37;2.88;;;1.50;;
38318;SDS011;24121;53.536;10.224;2023-04-24T04:25:03;2.47;;;1.40;;
38318;SDS011;24121;53.536;10.224;2023-04-24T04:27:29;1.88;;;1.65;;
38318;SDS011;24121;53.536;10.224;2023-04-24T04:29:57;1.73;;;1.30;;
38318;SDS011;24121;53.536;10.224;2023-04-24T04:32:30;1.55;;;1.45;;
38318;SDS011;24121;53.536;10.224;2023-04-24T04:34:58;1.60;;;1.40;;
38318;SDS011;24121;53.536;10.224;2023-04-24T04:37:23;1.52;;;1.42;;
38318;SDS011;24121;53.536;10.224;2023-04-24T04:39:48;2.22;;;1.40;;
38318;SDS011;24121;53.536;10.224;2023-04-24T04:42:14;2.10;;;1.40;;
38318;SDS011;24121;53.536;10.224;2023-04-24T04:44:40;1.40;;;1.30;;
38318;SDS011;24121;53.536;10.224;2023-04-24T04:47:05;1.65;;;1.40;;
38318;SDS011;24121;53.536;10.224;2023-04-24T04:49:32;1.65;;;1.38;;
38318;SDS011;24121;53.536;10.224;2023-04-24T04:51:57;2.78;;;1.75;;
38318;SDS011;24121;53.536;10.224;2023-04-24T04:54:22;2.88;;;1.65;;
38318;SDS011;24121;53.536;10.224;2023-04-24T04:56:51;1.95;;;1.60;;
38318;SDS011;24121;53.536;10.224;2023-04-24T04:59:16;1.92;;;1.50;;
38318;SDS011;24121;53.536;10.224;2023-04-24T05:01:41;1.70;;;1.50;;
38318;SDS011;24121;53.536;10.224;2023-04-24T05:04:07;1.42;;;1.10;;
38318;SDS011;24121;53.536;10.224;2023-04-24T05:06:32;2.35;;;1.83;;
38318;SDS011;24121;53.536;10.224;2023-04-24T05:08:57;1.88;;;1.48;;
38318;SDS011;24121;53.536;10.224;2023-04-24T05:11:23;1.90;;;1.38;;
38318;SDS011;24121;53.536;10.224;2023-04-24T05:13:48;1.30;;;1.10;;
38318;SDS011;24121;53.536;10.224;2023-04-24T05:16:13;4.18;;;1.42;;
38318;SDS011;24121;53.536;10.224;2023-04-24T05:18:39;1.75;;;1.50;;
38318;SDS011;24121;53.536;10.224;2023-04-24T05:21:04;6.80;;;1.35;;
38318;SDS011;24121;53.536;10.224;2023-04-24T05:23:29;3.08;;;1.30;;
38318;SDS011;24121;53.536;10.224;2023-04-24T05:25:55;1.60;;;1.50;;
38318;SDS011;24121;53.536;10.224;2023-04-24T05:28:20;1.95;;;1.60;;
38318;SDS011;24121;53.536;10.224;2023-04-24T05:30:46;1.70;;;1.60;;
38318;SDS011;24121;53.536;10.224;2023-04-24T05:33:11;1.90;;;1.70;;
38318;SDS011;24121;53.536;10.224;2023-04-24T05:35:36;2.40;;;1.92;;
38318;SDS011;24121;53.536;10.224;2023-04-24T05:38:02;2.30;;;2.10;;
38318;SDS011;24121;53.536;10.224;2023-04-24T05:40:28;3.13;;;1.80;;
38318;SDS011;24121;53.536;10.224;2023-04-24T05:42:53;2.13;;;1.42;;
38318;SDS011;24121;53.536;10.224;2023-04-24T05:45:18;1.70;;;1.42;;
38318;SDS011;24121;53.536;10.224;2023-04-24T05:47:44;2.13;;;1.40;;
38318;SDS011;24121;53.536;10.224;2023-04-24T05:50:10;2.90;;;1.60;;
38318;SDS011;24121;53.536;10.224;2023-04-24T05:52:35;1.25;;;1.15;;
38318;SDS011;24121;53.536;10.224;2023-04-24T05:55:01;1.30;;;1.20;;
38318;SDS011;24121;53.536;10.224;2023-04-24T05:57:26;3.28;;;1.40;;
38318;SDS011;24121;53.536;10.224;2023-04-24T05:59:52;1.60;;;1.40;;
38318;SDS011;24121;53.536;10.224;2023-04-24T06:02:17;3.13;;;1.50;;
38318;SDS011;24121;53.536;10.224;2023-04-24T06:04:42;1.20;;;1.10;;
38318;SDS011;24121;53.536;10.224;2023-04-24T06:07:09;2.95;;;1.20;;
38318;SDS011;24121;53.536;10.224;2023-04-24T06:09:35;1.92;;;1.58;;
38318;SDS011;24121;53.536;10.224;2023-04-24T06:12:01;1.95;;;1.45;;
38318;SDS011;24121;53.536;10.224;2023-04-24T06:14:27;1.50;;;1.30;;
38318;SDS011;24121;53.536;10.224;2023-04-24T06:16:52;3.22;;;1.70;;
38318;SDS011;24121;53.536;10.224;2023-04-24T06:19:18;1.40;;;1.30;;
38318;SDS011;24121;53.536;10.224;2023-04-24T06:21:43;2.05;;;1.15;;
38318;SDS011;24121;53.536;10.224;2023-04-24T06:24:08;1.30;;;1.20;;
38318;SDS011;24121;53.536;10.224;2023-04-24T06:26:33;1.20;;;1.10;;
38318;SDS011;24121;53.536;10.224;2023-04-24T06:28:59;1.30;;;1.00;;
38318;SDS011;24121;53.536;10.224;2023-04-24T06:31:25;2.00;;;1.10;;
38318;SDS011;24121;53.536;10.224;2023-04-24T06:33:50;1.67;;;1.10;;
38318;SDS011;24121;53.536;10.224;2023-04-24T06:36:16;3.33;;;1.30;;
38318;SDS011;24121;53.536;10.224;2023-04-24T06:38:41;1.20;;;1.10;;
38318;SDS011;24121;53.536;10.224;2023-04-24T06:41:07;4.13;;;1.40;;
38318;SDS011;24121;53.536;10.224;2023-04-24T06:43:32;1.67;;;1.40;;
38318;SDS011;24121;53.536;10.224;2023-04-24T06:45:58;2.83;;;1.27;;
38318;SDS011;24121;53.536;10.224;2023-04-24T06:48:24;1.75;;;1.50;;
38318;SDS011;24121;53.536;10.224;2023-04-24T06:50:50;1.55;;;1.45;;
38318;SDS011;24121;53.536;10.224;2023-04-24T06:53:15;2.75;;;1.20;;
38318;SDS011;24121;53.536;10.224;2023-04-24T06:55:41;1.67;;;1.58;;
38318;SDS011;24121;53.536;10.224;2023-04-24T06:58:08;1.75;;;1.50;;
38318;SDS011;24121;53.536;10.224;2023-04-24T07:00:33;2.80;;;1.50;;
38318;SDS011;24121;53.536;10.224;2023-04-24T07:02:58;2.53;;;1.45;;
38318;SDS011;24121;53.536;10.224;2023-04-24T07:05:24;1.38;;;1.27;;
38318;SDS011;24121;53.536;10.224;2023-04-24T07:07:49;1.95;;;1.80;;
38318;SDS011;24121;53.536;10.224;2023-04-24T07:10:16;1.90;;;1.50;;
38318;SDS011;24121;53.536;10.224;2023-04-24T07:12:41;2.15;;;1.40;;
38318;SDS011;24121;53.536;10.224;2023-04-24T07:15:07;1.58;;;1.48;;
38318;SDS011;24121;53.536;10.224;2023-04-24T07:17:33;1.60;;;1.50;;
38318;SDS011;24121;53.536;10.224;2023-04-24T07:19:59;4.80;;;1.90;;
38318;SDS011;24121;53.536;10.224;2023-04-24T07:22:25;2.10;;;1.52;;
38318;SDS011;24121;53.536;10.224;2023-04-24T07:24:50;2.22;;;1.50;;
38318;SDS011;24121;53.536;10.224;2023-04-24T07:27:16;2.67;;;1.75;;
38318;SDS011;24121;53.536;10.224;2023-04-24T07:29:41;2.70;;;1.73;;
38318;SDS011;24121;53.536;10.224;2023-04-24T07:32:06;2.08;;;1.83;;
38318;SDS011;24121;53.536;10.224;2023-04-24T07:34:32;2.25;;;1.80;;
38318;SDS011;24121;53.536;10.224;2023-04-24T07:36:58;1.92;;;1.73;;
38318;SDS011;24121;53.536;10.224;2023-04-24T07:39:23;1.92;;;1.83;;
38318;SDS011;24121;53.536;10.224;2023-04-24T07:41:49;2.28;;;2.00;;
38318;SDS011;24121;53.536;10.224;2023-04-24T07:44:14;3.42;;;2.30;;
38318;SDS011;24121;53.536;10.224;2023-04-24T07:46:39;2.78;;;2.38;;
38318;SDS011;24121;53.536;10.224;2023-04-24T07:49:05;4.20;;;2.05;;
38318;SDS011;24121;53.536;10.224;2023-04-24T07:51:30;2.08;;;1.83;;
38318;SDS011;24121;53.536;10.224;2023-04-24T07:53:57;2.20;;;2.00;;
38318;SDS011;24121;53.536;10.224;2023-04-24T07:56:22;2.03;;;1.80;;
38318;SDS011;24121;53.536;10.224;2023-04-24T07:58:49;2.40;;;2.20;;
38318;SDS011;24121;53.536;10.224;2023-04-24T08:01:14;1.98;;;1.88;;
38318;SDS011;24121;53.536;10.224;2023-04-24T08:03:39;3.17;;;2.10;;
38318;SDS011;24121;53.536;10.224;2023-04-24T08:06:05;2.30;;;2.10;;
38318;SDS011;24121;53.536;10.224;2023-04-24T08:08:30;2.40;;;2.05;;
38318;SDS011;24121;53.536;10.224;2023-04-24T08:10:56;2.60;;;2.40;;
38318;SDS011;24121;53.536;10.224;2023-04-24T08:13:21;2.63;;;2.35;;
38318;SDS011;24121;53.536;10.224;2023-04-24T08:15:47;2.60;;;2.40;;
38318;SDS011;24121;53.536;10.224;2023-04-24T08:18:12;2.88;;;2.15;;
38318;SDS011;24121;53.536;10.224;2023-04-24T08:20:38;2.58;;;2.35;;
38318;SDS011;24121;53.536;10.224;2023-04-24T08:23:04;2.70;;;2.13;;
38318;SDS011;24121;53.536;10.224;2023-04-24T08:25:29;2.92;;;2.60;;
38318;SDS011;24121;53.536;10.224;2023-04-24T08:27:55;3.83;;;2.60;;
38318;SDS011;24121;53.536;10.224;2023-04-24T08:30:20;2.58;;;2.20;;
38318;SDS011;24121;53.536;10.224;2023-04-24T08:32:46;3.20;;;2.70;;
38318;SDS011;24121;53.536;10.224;2023-04-24T08:35:11;2.78;;;2.58;;
38318;SDS011;24121;53.536;10.224;2023-04-24T08:37:36;3.58;;;3.28;;
38318;SDS011;24121;53.536;10.224;2023-04-24T08:40:03;3.78;;;3.28;;
38318;SDS011;24121;53.536;10.224;2023-04-24T08:42:32;5.70;;;3.25;;
38318;SDS011;24121;53.536;10.224;2023-04-24T08:44:58;3.90;;;3.60;;
38318;SDS011;24121;53.536;10.224;2023-04-24T08:47:23;4.60;;;4.05;;
38318;SDS011;24121;53.536;10.224;2023-04-24T08:49:50;4.63;;;4.22;;
38318;SDS011;24121;53.536;10.224;2023-04-24T08:52:16;4.40;;;4.00;;
38318;SDS011;24121;53.536;10.224;2023-04-24T08:54:42;4.50;;;3.97;;
38318;SDS011;24121;53.536;10.224;2023-04-24T08:57:10;4.43;;;3.88;;
38318;SDS011;24121;53.536;10.224;2023-04-24T08:59:36;3.80;;;3.50;;
38318;SDS011;24121;53.536;10.224;2023-04-24T09:02:03;4.82;;;4.43;;
38318;SDS011;24121;53.536;10.224;2023-04-24T09:04:29;4.47;;;4.03;;
38318;SDS011;24121;53.536;10.224;2023-04-24T09:06:55;5.20;;;4.70;;
38318;SDS011;24121;53.536;10.224;2023-04-24T09:09:22;5.47;;;4.90;;
38318;SDS011;24121;53.536;10.224;2023-04-24T09:11:51;4.88;;;4.47;;
38318;SDS011;24121;53.536;10.224;2023-04-24T09:14:19;5.60;;;4.60;;
38318;SDS011;24121;53.536;10.224;2023-04-24T09:16:45;6.20;;;4.78;;
38318;SDS011;24121;53.536;10.224;2023-04-24T09:19:11;5.63;;;4.60;;
38318;SDS011;24121;53.536;10.224;2023-04-24T09:21:37;4.80;;;4.40;;
38318;SDS011;24121;53.536;10.224;2023-04-24T09:24:06;4.50;;;4.10;;
38318;SDS011;24121;53.536;10.224;2023-04-24T09:26:36;5.40;;;4.25;;
38318;SDS011;24121;53.536;10.224;2023-04-24T09:29:02;4.53;;;4.13;;
38318;SDS011;24121;53.536;10.224;2023-04-24T09:31:29;4.50;;;3.70;;
38318;SDS011;24121;53.536;10.224;2023-04-24T09:33:59;4.28;;;3.97;;
38318;SDS011;24121;53.536;10.224;2023-04-24T09:36:30;4.80;;;3.78;;
38318;SDS011;24121;53.536;10.224;2023-04-24T09:39:03;4.68;;;4.18;;
38318;SDS011;24121;53.536;10.224;2023-04-24T09:41:43;4.35;;;3.63;;
38318;SDS011;24121;53.536;10.224;2023-04-24T09:44:36;4.78;;;4.38;;
38318;SDS011;24121;53.536;10.224;2023-04-24T09:47:00;5.07;;;4.22;;
38318;SDS011;24121;53.536;10.224;2023-04-24T09:49:26;5.18;;;4.68;;
38318;SDS011;24121;53.536;10.224;2023-04-24T09:51:52;5.00;;;4.20;;
38318;SDS011;24121;53.536;10.224;2023-04-24T09:54:27;4.93;;;4.53;;
38318;SDS011;24121;53.536;10.224;2023-04-24T09:56:54;4.50;;;4.10;;
38318;SDS011;24121;53.536;10.224;2023-04-24T09:59:19;4.93;;;4.43;;
38318;SDS011;24121;53.536;10.224;2023-04-24T10:01:45;5.30;;;4.70;;
38318;SDS011;24121;53.536;10.224;2023-04-24T10:04:23;4.70;;;4.30;;
38318;SDS011;24121;53.536;10.224;2023-04-24T10:06:52;5.70;;;4.60;;
38318;SDS011;24121;53.536;10.224;2023-04-24T10:09:19;5.57;;;4.80;;
38318;SDS011;24121;53.536;10.224;2023-04-24T10:11:46;5.28;;;4.50;;
38318;SDS011;24121;53.536;10.224;2023-04-24T10:14:13;5.32;;;4.15;;
38318;SDS011;24121;53.536;10.224;2023-04-24T10:16:40;5.05;;;4.53;;
38318;SDS011;24121;53.536;10.224;2023-04-24T10:19:06;6.45;;;4.80;;
38318;SDS011;24121;53.536;10.224;2023-04-24T10:21:32;5.40;;;4.72;;
38318;SDS011;24121;53.536;10.224;2023-04-24T10:23:58;5.40;;;4.22;;
38318;SDS011;24121;53.536;10.224;2023-04-24T10:26:24;4.85;;;4.35;;
38318;SDS011;24121;53.536;10.224;2023-04-24T10:28:51;7.25;;;5.28;;
38318;SDS011;24121;53.536;10.224;2023-04-24T10:31:17;5.45;;;4.85;;
38318;SDS011;24121;53.536;10.224;2023-04-24T10:33:42;7.65;;;5.13;;
38318;SDS011;24121;53.536;10.224;2023-04-24T10:36:11;5.85;;;5.25;;
38318;SDS011;24121;53.536;10.224;2023-04-24T10:38:39;6.93;;;6.07;;
38318;SDS011;24121;53.536;10.224;2023-04-24T10:41:12;6.90;;;6.20;;
38318;SDS011;24121;53.536;10.224;2023-04-24T10:44:09;6.45;;;5.63;;
38318;SDS011;24121;53.536;10.224;2023-04-24T10:46:38;9.43;;;7.30;;
38318;SDS011;24121;53.536;10.224;2023-04-24T10:49:05;7.90;;;6.30;;
38318;SDS011;24121;53.536;10.224;2023-04-24T10:51:44;9.30;;;6.20;;
38318;SDS011;24121;53.536;10.224;2023-04-24T11:02:40;7.63;;;6.28;;
38318;SDS011;24121;53.536;10.224;2023-04-24T11:05:14;9.50;;;7.70;;
38318;SDS011;24121;53.536;10.224;2023-04-24T11:10:44;8.20;;;7.30;;
38318;SDS011;24121;53.536;10.224;2023-04-24T11:13:10;9.40;;;7.00;;
38318;SDS011;24121;53.536;10.224;2023-04-24T11:15:41;8.60;;;7.70;;
38318;SDS011;24121;53.536;10.224;2023-04-24T11:18:07;7.95;;;6.82;;
38318;SDS011;24121;53.536;10.224;2023-04-24T11:20:36;8.63;;;7.72;;
38318;SDS011;24121;53.536;10.224;2023-04-24T11:23:03;7.53;;;6.70;;
38318;SDS011;24121;53.536;10.224;2023-04-24T11:25:30;9.15;;;7.47;;
38318;SDS011;24121;53.536;10.224;2023-04-24T11:28:05;7.68;;;6.88;;
38318;SDS011;24121;53.536;10.224;2023-04-24T11:30:31;9.13;;;7.07;;
38318;SDS011;24121;53.536;10.224;2023-04-24T11:33:01;7.53;;;6.15;;
38318;SDS011;24121;53.536;10.224;2023-04-24T11:35:29;7.78;;;6.38;;
38318;SDS011;24121;53.536;10.224;2023-04-24T11:37:55;9.43;;;7.00;;
38318;SDS011;24121;53.536;10.224;2023-04-24T11:40:21;7.25;;;6.50;;
38318;SDS011;24121;53.536;10.224;2023-04-24T11:42:49;8.27;;;6.82;;
38318;SDS011;24121;53.536;10.224;2023-04-24T11:45:22;7.32;;;6.40;;
38318;SDS011;24121;53.536;10.224;2023-04-24T11:47:50;7.78;;;6.82;;
38318;SDS011;24121;53.536;10.224;2023-04-24T11:50:16;7.88;;;6.53;;
38318;SDS011;24121;53.536;10.224;2023-04-24T11:52:43;9.85;;;6.80;;
38318;SDS011;24121;53.536;10.224;2023-04-24T11:57:38;8.15;;;5.85;;
38318;SDS011;24121;53.536;10.224;2023-04-24T12:00:04;6.50;;;5.90;;
38318;SDS011;24121;53.536;10.224;2023-04-24T12:02:30;5.80;;;5.28;;
38318;SDS011;24121;53.536;10.224;2023-04-24T12:04:55;7.78;;;5.70;;
38318;SDS011;24121;53.536;10.224;2023-04-24T12:07:21;7.30;;;6.60;;
38318;SDS011;24121;53.536;10.224;2023-04-24T12:09:49;6.78;;;5.82;;
38318;SDS011;24121;53.536;10.224;2023-04-24T12:12:19;5.70;;;5.00;;
38318;SDS011;24121;53.536;10.224;2023-04-24T12:14:45;6.95;;;5.63;;
38318;SDS011;24121;53.536;10.224;2023-04-24T12:17:13;5.70;;;5.20;;
38318;SDS011;24121;53.536;10.224;2023-04-24T12:19:44;4.82;;;4.32;;
38318;SDS011;24121;53.536;10.224;2023-04-24T12:22:10;6.32;;;4.82;;
38318;SDS011;24121;53.536;10.224;2023-04-24T12:24:54;5.63;;;4.47;;
38318;SDS011;24121;53.536;10.224;2023-04-24T12:27:21;4.20;;;3.80;;
38318;SDS011;24121;53.536;10.224;2023-04-24T12:29:53;5.00;;;4.45;;
38318;SDS011;24121;53.536;10.224;2023-04-24T12:32:21;4.88;;;4.25;;
38318;SDS011;24121;53.536;10.224;2023-04-24T12:34:46;5.30;;;4.32;;
38318;SDS011;24121;53.536;10.224;2023-04-24T12:37:11;4.53;;;4.07;;
38318;SDS011;24121;53.536;10.224;2023-04-24T12:39:37;4.10;;;3.67;;
38318;SDS011;24121;53.536;10.224;2023-04-24T12:42:03;6.82;;;4.22;;
38318;SDS011;24121;53.536;10.224;2023-04-24T12:44:29;5.25;;;4.60;;
38318;SDS011;24121;53.536;10.224;2023-04-24T12:46:56;5.05;;;4.25;;
38318;SDS011;24121;53.536;10.224;2023-04-24T12:49:21;6.68;;;4.68;;
38318;SDS011;24121;53.536;10.224;2023-04-24T12:51:46;6.80;;;5.50;;
38318;SDS011;24121;53.536;10.224;2023-04-24T12:54:11;5.97;;;4.68;;
38318;SDS011;24121;53.536;10.224;2023-04-24T12:56:37;5.88;;;4.30;;
38318;SDS011;24121;53.536;10.224;2023-04-24T12:59:04;6.07;;;4.82;;
38318;SDS011;24121;53.536;10.224;2023-04-24T13:01:30;8.20;;;4.43;;
38318;SDS011;24121;53.536;10.224;2023-04-24T13:03:55;5.40;;;4.35;;
38318;SDS011;24121;53.536;10.224;2023-04-24T13:06:20;5.43;;;3.70;;
38318;SDS011;24121;53.536;10.224;2023-04-24T13:08:46;3.80;;;3.25;;
38318;SDS011;24121;53.536;10.224;2023-04-24T13:11:12;4.25;;;3.15;;
38318;SDS011;24121;53.536;10.224;2023-04-24T13:13:38;3.35;;;2.97;;
38318;SDS011;24121;53.536;10.224;2023-04-24T13:16:03;4.90;;;3.17;;
38318;SDS011;24121;53.536;10.224;2023-04-24T13:18:28;3.60;;;3.30;;
38318;SDS011;24121;53.536;10.224;2023-04-24T13:20:54;4.38;;;2.90;;
38318;SDS011;24121;53.536;10.224;2023-04-24T13:23:19;3.35;;;2.90;;
38318;SDS011;24121;53.536;10.224;2023-04-24T13:25:45;4.80;;;3.30;;
38318;SDS011;24121;53.536;10.224;2023-04-24T13:28:10;5.05;;;3.53;;
38318;SDS011;24121;53.536;10.224;2023-04-24T13:30:36;3.58;;;3.08;;
38318;SDS011;24121;53.536;10.224;2023-04-24T13:33:01;3.78;;;3.00;;
38318;SDS011;24121;53.536;10.224;2023-04-24T13:35:26;3.65;;;3.13;;
38318;SDS011;24121;53.536;10.224;2023-04-24T13:37:52;5.65;;;4.18;;
38318;SDS011;24121;53.536;10.224;2023-04-24T13:40:17;6.45;;;5.10;;
38318;SDS011;24121;53.536;10.224;2023-04-24T13:42:42;6.40;;;5.47;;
38318;SDS011;24121;53.536;10.224;2023-04-24T13:45:08;7.05;;;5.07;;
38318;SDS011;24121;53.536;10.224;2023-04-24T13:47:34;5.57;;;5.07;;
38318;SDS011;24121;53.536;10.224;2023-04-24T13:50:00;8.13;;;6.22;;
38318;SDS011;24121;53.536;10.224;2023-04-24T13:52:25;6.28;;;5.03;;
38318;SDS011;24121;53.536;10.224;2023-04-24T13:54:50;4.75;;;4.35;;
38318;SDS011;24121;53.536;10.224;2023-04-24T13:57:16;6.60;;;3.95;;
38318;SDS011;24121;53.536;10.224;2023-04-24T13:59:41;5.18;;;4.68;;
38318;SDS011;24121;53.536;10.224;2023-04-24T14:02:07;4.78;;;4.38;;
38318;SDS011;24121;53.536;10.224;2023-04-24T14:04:32;4.70;;;4.32;;
38318;SDS011;24121;53.536;10.224;2023-04-24T14:06:57;5.53;;;5.03;;
38318;SDS011;24121;53.536;10.224;2023-04-24T14:09:23;5.20;;;4.40;;
38318;SDS011;24121;53.536;10.224;2023-04-24T14:11:48;4.80;;;4.35;;
38318;SDS011;24121;53.536;10.224;2023-04-24T14:14:13;5.28;;;3.80;;
38318;SDS011;24121;53.536;10.224;2023-04-24T14:16:39;4.13;;;3.72;;
38318;SDS011;24121;53.536;10.224;2023-04-24T14:19:04;4.07;;;3.67;;
38318;SDS011;24121;53.536;10.224;2023-04-24T14:21:31;3.72;;;3.25;;
38318;SDS011;24121;53.536;10.224;2023-04-24T14:23:56;3.78;;;3.15;;
38318;SDS011;24121;53.536;10.224;2023-04-24T14:26:21;3.88;;;3.50;;
38318;SDS011;24121;53.536;10.224;2023-04-24T14:28:47;3.70;;;3.28;;
38318;SDS011;24121;53.536;10.224;2023-04-24T14:31:12;5.00;;;3.63;;
38318;SDS011;24121;53.536;10.224;2023-04-24T14:33:37;3.70;;;3.40;;
38318;SDS011;24121;53.536;10.224;2023-04-24T14:36:02;4.28;;;3.88;;
38318;SDS011;24121;53.536;10.224;2023-04-24T14:38:30;4.28;;;3.65;;
38318;SDS011;24121;53.536;10.224;2023-04-24T14:40:56;3.60;;;3.30;;